createdAt,value
2022-08-17T00:01:19.155Z,100998.00
2022-08-17T00:03:49.640Z,100991.00
2022-08-17T00:06:18.398Z,100997.00
2022-08-17T00:08:52.273Z,100986.00
2022-08-17T00:11:21.730Z,100983.00
2022-08-17T00:13:49.729Z,100985.00
2022-08-17T00:16:22.443Z,100971.00
2022-08-17T00:19:10.577Z,100979.00
2022-08-17T00:22:29.804Z,100974.00
2022-08-17T00:24:24.780Z,100971.00
2022-08-17T00:26:51.263Z,100969.00
2022-08-17T00:29:20.224Z,100968.00
2022-08-17T00:31:46.951Z,100980.00
2022-08-17T00:34:13.409Z,100965.00
2022-08-17T00:36:39.940Z,100962.00
2022-08-17T00:39:06.417Z,100960.00
2022-08-17T00:41:35.686Z,100961.00
2022-08-17T00:44:03.479Z,100958.00
2022-08-17T00:46:40.450Z,100970.00
2022-08-17T00:49:07.296Z,100962.00
2022-08-17T00:51:37.498Z,100962.00
2022-08-17T00:54:07.036Z,100962.00
2022-08-17T00:56:34.975Z,100969.00
2022-08-17T00:59:02.604Z,100969.00
2022-08-17T01:01:29.570Z,100962.00
2022-08-17T01:03:59.740Z,100965.00
2022-08-17T01:06:28.274Z,100959.00
2022-08-17T01:08:57.727Z,100962.00
2022-08-17T01:11:24.395Z,100963.00
2022-08-17T01:13:50.850Z,100958.00
2022-08-17T01:16:20.119Z,100959.00
2022-08-17T01:18:48.141Z,100956.00
2022-08-17T01:21:26.648Z,100957.00
2022-08-17T01:23:53.135Z,100957.00
2022-08-17T01:26:20.146Z,100958.00
2022-08-17T01:28:54.066Z,100950.00
2022-08-17T01:31:22.837Z,100954.00
2022-08-17T01:33:49.310Z,100958.00
2022-08-17T01:36:15.850Z,100956.00
2022-08-17T01:38:42.376Z,100967.00
2022-08-17T01:41:13.364Z,100970.00
2022-08-17T01:43:43.443Z,100971.00
2022-08-17T01:46:14.573Z,100977.00
2022-08-17T01:48:41.434Z,100969.00
2022-08-17T01:51:08.062Z,100966.00
2022-08-17T01:53:41.526Z,100956.00
2022-08-17T01:56:09.907Z,100962.00
2022-08-17T01:58:36.735Z,100964.00
2022-08-17T02:01:04.188Z,100963.00
2022-08-17T02:03:30.736Z,100961.00
2022-08-17T02:05:57.247Z,100966.00
2022-08-17T02:08:37.084Z,100961.00
2022-08-17T02:11:11.341Z,100956.00
2022-08-17T02:13:38.322Z,100949.00
2022-08-17T02:16:04.808Z,100946.00
2022-08-17T02:18:31.316Z,100937.00
2022-08-17T02:20:57.767Z,100941.00
2022-08-17T02:23:25.298Z,100935.00
2022-08-17T02:25:52.224Z,100935.00
2022-08-17T02:28:18.894Z,100927.00
2022-08-17T02:30:59.531Z,100916.00
2022-08-17T02:33:42.742Z,100922.00
2022-08-17T02:36:10.594Z,100917.00
2022-08-17T02:38:40.668Z,100924.00
2022-08-17T02:41:07.728Z,100935.00
2022-08-17T02:43:34.956Z,100940.00
2022-08-17T02:46:01.497Z,100937.00
2022-08-17T02:48:30.710Z,100937.00
2022-08-17T02:50:58.232Z,100935.00
2022-08-17T02:53:24.755Z,100943.00
2022-08-17T02:55:52.497Z,100959.00
2022-08-17T02:58:34.991Z,100985.00
2022-08-17T03:01:03.287Z,101004.00
2022-08-17T03:03:29.876Z,101011.00
2022-08-17T03:05:56.391Z,101031.00
2022-08-17T03:08:23.403Z,101043.00
2022-08-17T03:10:50.528Z,101037.00
2022-08-17T03:13:17.356Z,101032.00
2022-08-17T03:15:47.561Z,101021.00
2022-08-17T03:18:24.195Z,101012.00
2022-08-17T03:20:56.536Z,101006.00
2022-08-17T03:23:25.277Z,101005.00
2022-08-17T03:25:53.166Z,101005.00
2022-08-17T03:28:20.561Z,100997.00
2022-08-17T03:30:47.009Z,100993.00
2022-08-17T03:33:13.770Z,100988.00
2022-08-17T03:35:40.717Z,100978.00
2022-08-17T03:38:08.076Z,100984.00
2022-08-17T03:40:56.593Z,100985.00
2022-08-17T03:43:22.198Z,100974.00
2022-08-17T03:46:10.110Z,100980.00
2022-08-17T03:48:56.205Z,100975.00
2022-08-17T03:51:42.409Z,100986.00
2022-08-17T03:54:28.779Z,100983.00
2022-08-17T03:56:59.076Z,100985.00
2022-08-17T03:59:25.611Z,100983.00
2022-08-17T04:01:53.598Z,100994.00
2022-08-17T04:04:21.234Z,100999.00
2022-08-17T04:06:54.305Z,101014.00
2022-08-17T04:09:20.872Z,101015.00
2022-08-17T04:11:47.530Z,101018.00
2022-08-17T04:14:14.092Z,101016.00
2022-08-17T04:16:40.619Z,101014.00
2022-08-17T04:19:07.101Z,100999.00
2022-08-17T04:21:34.441Z,100998.00
2022-08-17T04:24:00.982Z,100997.00
2022-08-17T04:26:53.403Z,100989.00
2022-08-17T04:29:14.868Z,100984.00
2022-08-17T04:31:41.289Z,100983.00
2022-08-17T04:34:07.766Z,100970.00
2022-08-17T04:36:34.338Z,100975.00
2022-08-17T04:39:01.079Z,100971.00
2022-08-17T04:41:46.213Z,100980.00
2022-08-17T04:44:12.681Z,100975.00
2022-08-17T04:46:54.853Z,100965.00
2022-08-17T04:49:21.296Z,100973.00
2022-08-17T04:51:56.288Z,100972.00
2022-08-17T04:54:26.476Z,100969.00
2022-08-17T04:56:53.085Z,100970.00
2022-08-17T04:59:20.577Z,100967.00
2022-08-17T05:01:47.985Z,100964.00
2022-08-17T05:04:34.217Z,100954.00
2022-08-17T05:07:01.951Z,100954.00
2022-08-17T05:09:29.026Z,100961.00
2022-08-17T05:11:56.368Z,100961.00
2022-08-17T05:14:32.711Z,100962.00
2022-08-17T05:17:00.252Z,100977.00
2022-08-17T05:19:27.717Z,100978.00
2022-08-17T05:21:54.246Z,100972.00
2022-08-17T05:24:38.314Z,100975.00
2022-08-17T05:27:06.621Z,100982.00
2022-08-17T05:29:35.229Z,100987.00
2022-08-17T05:32:38.418Z,100974.00
2022-08-17T05:35:01.783Z,100973.00
2022-08-17T05:37:28.283Z,100977.00
2022-08-17T05:39:54.857Z,100991.00
2022-08-17T05:42:21.776Z,101000.00
2022-08-17T05:44:48.399Z,101003.00
2022-08-17T05:47:14.908Z,101011.00
2022-08-17T05:49:41.407Z,101012.00
2022-08-17T05:52:23.558Z,101008.00
2022-08-17T05:54:59.296Z,101010.00
2022-08-17T05:57:42.375Z,101016.00
2022-08-17T06:00:30.796Z,101019.00
2022-08-17T06:03:00.637Z,101014.00
2022-08-17T06:05:40.283Z,101013.00
2022-08-17T06:08:12.144Z,101007.00
2022-08-17T06:10:53.872Z,101008.00
2022-08-17T06:13:49.805Z,101015.00
2022-08-17T06:16:33.133Z,101011.00
2022-08-17T06:19:03.932Z,101013.00
2022-08-17T06:21:33.430Z,101009.00
2022-08-17T06:24:05.427Z,101025.00
2022-08-17T06:26:39.625Z,101019.00
2022-08-17T06:29:18.678Z,101021.00
2022-08-17T06:31:45.534Z,101026.00
2022-08-17T06:34:12.643Z,101019.00
2022-08-17T06:36:48.598Z,101026.00
2022-08-17T06:39:24.452Z,101020.00
2022-08-17T06:42:00.825Z,101018.00
2022-08-17T06:44:49.933Z,101018.00
2022-08-17T06:47:28.795Z,101024.00
2022-08-17T06:50:18.089Z,101019.00
2022-08-17T06:53:04.339Z,101019.00
2022-08-17T06:55:46.613Z,101014.00
2022-08-17T06:58:16.355Z,101011.00
2022-08-17T07:00:45.889Z,101013.00
2022-08-17T07:03:27.057Z,101009.00
2022-08-17T07:05:56.768Z,101005.00
2022-08-17T07:08:35.485Z,101007.00
2022-08-17T07:11:04.009Z,101022.00
2022-08-17T07:13:44.526Z,101018.00
2022-08-17T07:16:24.837Z,101022.00
2022-08-17T07:18:53.117Z,101022.00
2022-08-17T07:21:27.297Z,101024.00
2022-08-17T07:24:03.055Z,101033.00
2022-08-17T07:26:29.682Z,101035.00
2022-08-17T07:28:56.276Z,101036.00
2022-08-17T07:31:24.992Z,101034.00
2022-08-17T07:34:03.488Z,101025.00
2022-08-17T07:36:33.872Z,101041.00
2022-08-17T07:39:01.334Z,101041.00
2022-08-17T07:41:57.276Z,101050.00
2022-08-17T07:44:16.069Z,101051.00
2022-08-17T07:47:11.236Z,101054.00
2022-08-17T07:49:39.764Z,101061.00
2022-08-17T07:52:50.594Z,101060.00
2022-08-17T07:55:31.754Z,101065.00
2022-08-17T07:57:59.367Z,101066.00
2022-08-17T08:00:32.466Z,101064.00
2022-08-17T08:03:13.603Z,101069.00
2022-08-17T08:05:54.989Z,101070.00
2022-08-17T08:08:21.401Z,101071.00
2022-08-17T08:10:57.877Z,101075.00
2022-08-17T08:13:25.611Z,101089.00
2022-08-17T08:15:57.004Z,101091.00
2022-08-17T08:18:53.538Z,101092.00
2022-08-17T08:21:24.396Z,101091.00
2022-08-17T08:23:57.555Z,101100.00
2022-08-17T08:26:30.132Z,101109.00
2022-08-17T08:29:01.480Z,101110.00
2022-08-17T08:31:27.945Z,101121.00
2022-08-17T08:33:56.199Z,101129.00
2022-08-17T08:37:02.464Z,101131.00
2022-08-17T08:39:24.712Z,101131.00
2022-08-17T08:42:00.255Z,101132.00
2022-08-17T08:45:00.973Z,101136.00
2022-08-17T08:47:27.576Z,101134.00
2022-08-17T08:50:05.406Z,101132.00
2022-08-17T08:52:50.985Z,101132.00
2022-08-17T08:55:20.494Z,101130.00
2022-08-17T08:58:00.045Z,101136.00
2022-08-17T09:00:27.378Z,101137.00
2022-08-17T09:03:06.220Z,101129.00
2022-08-17T09:05:39.244Z,101139.00
2022-08-17T09:08:24.541Z,101125.00
2022-08-17T09:11:03.263Z,101132.00
2022-08-17T09:13:42.463Z,101124.00
2022-08-17T09:16:20.336Z,101119.00
2022-08-17T09:19:02.862Z,101119.00
2022-08-17T09:21:38.118Z,101120.00
2022-08-17T09:24:20.690Z,101122.00
2022-08-17T09:26:53.968Z,101116.00
2022-08-17T09:29:25.413Z,101109.00
2022-08-17T09:31:55.256Z,101114.00
2022-08-17T09:34:38.471Z,101108.00
2022-08-17T09:37:07.908Z,101109.00
2022-08-17T09:39:39.676Z,101110.00
2022-08-17T09:42:06.465Z,101115.00
2022-08-17T09:44:35.995Z,101103.00
2022-08-17T09:47:17.603Z,101107.00
2022-08-17T09:49:49.695Z,101106.00
2022-08-17T09:52:19.174Z,101108.00
2022-08-17T09:54:46.036Z,101099.00
2022-08-17T09:57:29.717Z,101100.00
2022-08-17T10:00:13.237Z,101110.00
2022-08-17T10:02:54.517Z,101107.00
2022-08-17T10:05:21.755Z,101110.00
2022-08-17T10:07:48.208Z,101104.00
2022-08-17T10:10:14.771Z,101109.00
2022-08-17T10:12:55.108Z,101112.00
2022-08-17T10:15:22.467Z,101110.00
2022-08-17T10:18:03.661Z,101108.00
2022-08-17T10:20:36.829Z,101105.00
2022-08-17T10:23:24.833Z,101113.00
2022-08-17T10:26:15.413Z,101114.00
2022-08-17T10:28:54.100Z,101115.00
2022-08-17T10:31:40.785Z,101106.00
2022-08-17T10:34:25.691Z,101119.00
2022-08-17T10:37:11.409Z,101120.00
2022-08-17T10:39:58.443Z,101133.00
2022-08-17T10:42:32.287Z,101141.00
2022-08-17T10:45:02.351Z,101139.00
2022-08-17T10:47:55.151Z,101140.00
2022-08-17T10:50:42.606Z,101140.00
2022-08-17T10:53:09.365Z,101145.00
2022-08-17T10:55:35.920Z,101156.00
2022-08-17T10:58:21.076Z,101159.00
2022-08-17T11:00:53.730Z,101159.00
2022-08-17T11:03:23.536Z,101159.00
2022-08-17T11:06:22.527Z,101151.00
2022-08-17T11:08:48.942Z,101161.00
2022-08-17T11:11:15.386Z,101157.00
2022-08-17T11:13:51.622Z,101151.00
2022-08-17T11:16:30.235Z,101150.00
2022-08-17T11:19:13.454Z,101155.00
2022-08-17T11:22:01.547Z,101152.00
2022-08-17T11:24:28.046Z,101157.00
2022-08-17T11:27:12.292Z,101161.00
2022-08-17T11:29:53.665Z,101161.00
2022-08-17T11:32:32.637Z,101158.00
2022-08-17T11:35:14.911Z,101165.00
2022-08-17T11:37:48.542Z,101154.00
2022-08-17T11:40:33.586Z,101166.00
2022-08-17T11:43:07.622Z,101161.00
2022-08-17T11:45:37.079Z,101162.00
2022-08-17T11:48:41.234Z,101163.00
2022-08-17T11:51:47.242Z,101166.00
2022-08-17T11:54:32.151Z,101168.00
2022-08-17T11:57:02.243Z,101170.00
2022-08-17T11:59:32.765Z,101179.00
2022-08-17T12:02:03.135Z,101178.00
2022-08-17T12:04:34.199Z,101182.00
2022-08-17T12:07:10.294Z,101179.00
2022-08-17T12:09:41.890Z,101184.00
2022-08-17T12:12:14.635Z,101190.00
2022-08-17T12:15:09.441Z,101180.00
2022-08-17T12:17:41.134Z,101183.00
2022-08-17T12:20:12.142Z,101185.00
2022-08-17T12:22:56.509Z,101181.00
2022-08-17T12:25:43.140Z,101186.00
2022-08-17T12:28:24.954Z,101181.00
2022-08-17T12:30:51.955Z,101178.00
2022-08-17T12:33:25.265Z,101179.00
2022-08-17T12:36:03.190Z,101181.00
2022-08-17T12:38:34.842Z,101177.00
2022-08-17T12:41:22.600Z,101176.00
2022-08-17T12:44:04.377Z,101169.00
2022-08-17T12:46:33.599Z,101175.00
2022-08-17T12:49:16.891Z,101180.00
2022-08-17T12:51:44.612Z,101172.00
2022-08-17T12:54:21.752Z,101173.00
2022-08-17T12:56:48.251Z,101169.00
2022-08-17T12:59:15.164Z,101167.00
2022-08-17T13:01:56.322Z,101167.00
2022-08-17T13:04:24.211Z,101172.00
2022-08-17T13:06:59.604Z,101177.00
2022-08-17T13:09:35.363Z,101175.00
2022-08-17T13:12:02.772Z,101178.00
2022-08-17T13:14:31.645Z,101181.00
2022-08-17T13:17:01.508Z,101180.00
2022-08-17T13:19:40.433Z,101185.00
2022-08-17T13:22:10.096Z,101176.00
2022-08-17T13:24:38.003Z,101177.00
2022-08-17T13:27:07.879Z,101173.00
2022-08-17T13:29:52.955Z,101177.00
2022-08-17T13:32:37.389Z,101173.00
2022-08-17T13:35:29.471Z,101168.00
2022-08-17T13:38:02.225Z,101171.00
2022-08-17T13:40:31.187Z,101164.00
2022-08-17T13:42:58.222Z,101164.00
2022-08-17T13:45:50.625Z,101163.00
2022-08-17T13:48:28.177Z,101163.00
2022-08-17T13:50:54.628Z,101164.00
2022-08-17T13:53:21.126Z,101167.00
2022-08-17T13:55:49.313Z,101173.00
2022-08-17T13:58:19.992Z,101171.00
2022-08-17T14:00:46.516Z,101180.00
2022-08-17T14:03:12.936Z,101183.00
2022-08-17T14:05:39.557Z,101177.00
2022-08-17T14:08:06.991Z,101182.00
2022-08-17T14:10:36.217Z,101184.00
2022-08-17T14:13:03.453Z,101182.00
2022-08-17T14:15:54.868Z,101189.00
2022-08-17T14:18:18.976Z,101192.00
2022-08-17T14:21:05.645Z,101184.00
2022-08-17T14:23:32.934Z,101188.00
2022-08-17T14:25:59.881Z,101181.00
2022-08-17T14:28:26.350Z,101191.00
2022-08-17T14:30:54.349Z,101194.00
2022-08-17T14:33:22.699Z,101200.00
2022-08-17T14:35:53.010Z,101204.00
2022-08-17T14:38:20.433Z,101218.00
2022-08-17T14:40:47.667Z,101214.00
2022-08-17T14:43:15.808Z,101215.00
2022-08-17T14:45:42.833Z,101210.00
2022-08-17T14:48:09.548Z,101213.00
2022-08-17T14:50:38.908Z,101222.00
2022-08-17T14:53:06.762Z,101215.00
2022-08-17T14:55:33.577Z,101225.00
2022-08-17T14:58:00.118Z,101228.00
2022-08-17T15:00:26.924Z,101221.00
2022-08-17T15:02:55.321Z,101219.00
2022-08-17T15:05:24.583Z,101223.00
2022-08-17T15:07:51.314Z,101219.00
2022-08-17T15:10:17.986Z,101208.00
2022-08-17T15:12:44.512Z,101210.00
2022-08-17T15:15:12.247Z,101206.00
2022-08-17T15:17:44.333Z,101202.00
2022-08-17T15:20:19.579Z,101199.00
2022-08-17T15:22:49.362Z,101193.00
2022-08-17T15:25:16.091Z,101188.00
2022-08-17T15:27:42.688Z,101183.00
2022-08-17T15:30:10.062Z,101172.00
2022-08-17T15:32:38.295Z,101174.00
2022-08-17T15:35:05.823Z,101178.00
2022-08-17T15:37:32.355Z,101179.00
2022-08-17T15:40:01.298Z,101180.00
2022-08-17T15:42:27.956Z,101174.00
2022-08-17T15:44:57.403Z,101179.00
2022-08-17T15:47:24.380Z,101175.00
2022-08-17T15:49:50.923Z,101179.00
2022-08-17T15:52:21.751Z,101181.00
2022-08-17T15:54:55.493Z,101185.00
2022-08-17T15:57:23.401Z,101185.00
2022-08-17T15:59:55.049Z,101185.00
2022-08-17T16:03:44.433Z,101189.00
2022-08-17T16:05:20.256Z,101200.00
2022-08-17T16:07:47.079Z,101205.00
2022-08-17T16:10:18.645Z,101209.00
2022-08-17T16:12:46.250Z,101211.00
2022-08-17T16:15:13.744Z,101226.00
2022-08-17T16:17:41.536Z,101231.00
2022-08-17T16:20:09.610Z,101228.00
2022-08-17T16:22:47.439Z,101234.00
2022-08-17T16:25:16.534Z,101240.00
2022-08-17T16:27:43.406Z,101243.00
2022-08-17T16:30:14.935Z,101257.00
2022-08-17T16:32:43.540Z,101252.00
2022-08-17T16:35:11.307Z,101257.00
2022-08-17T16:37:39.559Z,101258.00
2022-08-17T16:40:08.584Z,101250.00
2022-08-17T16:42:37.004Z,101247.00
2022-08-17T16:45:09.855Z,101238.00
2022-08-17T16:47:36.500Z,101231.00
2022-08-17T16:50:04.536Z,101222.00
2022-08-17T16:52:32.744Z,101226.00
2022-08-17T16:55:00.384Z,101225.00
2022-08-17T16:57:27.601Z,101233.00
2022-08-17T16:59:54.078Z,101231.00
2022-08-17T17:02:25.716Z,101225.00
2022-08-17T17:05:02.668Z,101238.00
2022-08-17T17:07:44.256Z,101238.00
2022-08-17T17:10:14.198Z,101239.00
2022-08-17T17:13:01.669Z,101239.00
2022-08-17T17:15:30.897Z,101240.00
2022-08-17T17:18:01.801Z,101240.00
2022-08-17T17:20:37.893Z,101243.00
2022-08-17T17:23:07.121Z,101242.00
2022-08-17T17:25:40.577Z,101247.00
2022-08-17T17:28:20.055Z,101233.00
2022-08-17T17:30:53.892Z,101227.00
2022-08-17T17:33:27.403Z,101225.00
2022-08-17T17:35:59.333Z,101211.00
2022-08-17T17:38:31.279Z,101198.00
2022-08-17T17:41:03.107Z,101201.00
2022-08-17T17:43:40.032Z,101194.00
2022-08-17T17:46:28.062Z,101190.00
2022-08-17T17:48:56.239Z,101174.00
2022-08-17T17:52:06.590Z,101179.00
2022-08-17T17:54:46.800Z,101179.00
2022-08-17T17:57:17.591Z,101189.00
2022-08-17T17:59:49.769Z,101189.00
2022-08-17T18:02:45.063Z,101190.00
2022-08-17T18:05:14.104Z,101193.00
2022-08-17T18:07:52.529Z,101200.00
2022-08-17T18:10:33.155Z,101202.00
2022-08-17T18:13:11.950Z,101212.00
2022-08-17T18:15:51.140Z,101221.00
2022-08-17T18:18:17.686Z,101219.00
2022-08-17T18:20:55.797Z,101223.00
2022-08-17T18:23:27.988Z,101237.00
2022-08-17T18:25:56.368Z,101245.00
2022-08-17T18:28:36.519Z,101248.00
2022-08-17T18:31:15.241Z,101259.00
2022-08-17T18:33:43.349Z,101270.00
2022-08-17T18:36:10.828Z,101280.00
2022-08-17T18:38:42.018Z,101277.00
2022-08-17T18:41:30.277Z,101275.00
2022-08-17T18:44:01.553Z,101283.00
2022-08-17T18:46:30.546Z,101276.00
2022-08-17T18:48:59.457Z,101282.00
2022-08-17T18:51:40.850Z,101282.00
2022-08-17T18:54:09.440Z,101274.00
2022-08-17T18:56:50.100Z,101268.00
2022-08-17T18:59:16.777Z,101267.00
2022-08-17T19:02:05.138Z,101267.00
2022-08-17T19:04:39.322Z,101250.00
2022-08-17T19:07:12.044Z,101235.00
2022-08-17T19:09:43.082Z,101211.00
2022-08-17T19:12:12.878Z,101191.00
2022-08-17T19:14:39.780Z,101184.00
2022-08-17T19:17:09.869Z,101175.00
2022-08-17T19:19:49.332Z,101180.00
2022-08-17T19:22:16.992Z,101181.00
2022-08-17T19:25:02.810Z,101195.00
2022-08-17T19:27:41.693Z,101223.00
2022-08-17T19:30:12.196Z,101236.00
2022-08-17T19:32:38.745Z,101257.00
2022-08-17T19:35:07.602Z,101265.00
2022-08-17T19:37:49.871Z,101275.00
2022-08-17T19:40:52.234Z,101291.00
2022-08-17T19:43:31.024Z,101304.00
2022-08-17T19:46:14.803Z,101312.00
2022-08-17T19:48:41.315Z,101319.00
2022-08-17T19:51:14.038Z,101321.00
2022-08-17T19:54:05.558Z,101320.00
2022-08-17T19:56:38.807Z,101319.00
2022-08-17T19:59:35.980Z,101319.00
2022-08-17T20:02:17.050Z,101327.00
2022-08-17T20:04:45.531Z,101326.00
2022-08-17T20:07:17.105Z,101335.00
2022-08-17T20:10:04.022Z,101343.00
2022-08-17T20:12:33.445Z,101340.00
2022-08-17T20:15:10.922Z,101341.00
2022-08-17T20:17:40.230Z,101342.00
2022-08-17T20:20:07.548Z,101335.00
2022-08-17T20:22:54.143Z,101328.00
2022-08-17T20:25:41.597Z,101328.00
2022-08-17T20:28:22.262Z,101326.00
2022-08-17T20:30:48.898Z,101326.00
2022-08-17T20:33:27.002Z,101317.00
2022-08-17T20:36:01.219Z,101325.00
2022-08-17T20:38:50.942Z,101337.00
2022-08-17T20:41:20.829Z,101330.00
2022-08-17T20:44:09.270Z,101333.00
2022-08-17T20:46:38.577Z,101333.00
2022-08-17T20:49:11.199Z,101332.00
2022-08-17T20:52:01.282Z,101330.00
2022-08-17T20:54:28.664Z,101334.00
2022-08-17T20:56:57.494Z,101339.00
2022-08-17T20:59:28.268Z,101336.00
2022-08-17T21:02:18.048Z,101334.00
2022-08-17T21:04:57.409Z,101332.00
2022-08-17T21:07:29.098Z,101321.00
2022-08-17T21:10:11.012Z,101324.00
2022-08-17T21:12:41.474Z,101332.00
2022-08-17T21:15:10.740Z,101334.00
2022-08-17T21:17:40.044Z,101341.00
2022-08-17T21:20:32.213Z,101338.00
2022-08-17T21:23:08.104Z,101341.00
2022-08-17T21:25:40.822Z,101343.00
2022-08-17T21:28:14.673Z,101356.00
2022-08-17T21:30:41.097Z,101368.00
2022-08-17T21:33:16.888Z,101370.00
2022-08-17T21:35:58.761Z,101374.00
2022-08-17T21:38:56.970Z,101375.00
2022-08-17T21:41:24.082Z,101375.00
2022-08-17T21:43:51.405Z,101371.00
2022-08-17T21:46:26.795Z,101377.00
2022-08-17T21:48:54.351Z,101385.00
2022-08-17T21:51:23.720Z,101388.00
2022-08-17T21:53:51.437Z,101389.00
2022-08-17T21:56:24.169Z,101390.00
2022-08-17T21:58:55.919Z,101394.00
2022-08-17T22:01:24.614Z,101398.00
2022-08-17T22:03:56.486Z,101398.00
2022-08-17T22:06:29.598Z,101413.00
2022-08-17T22:09:19.375Z,101412.00
2022-08-17T22:11:48.657Z,101426.00
2022-08-17T22:14:21.299Z,101424.00
2022-08-17T22:16:48.424Z,101428.00
2022-08-17T22:19:15.165Z,101432.00
2022-08-17T22:21:41.613Z,101430.00
2022-08-17T22:24:18.001Z,101430.00
2022-08-17T22:27:00.261Z,101434.00
2022-08-17T22:29:45.602Z,101424.00
2022-08-17T22:32:29.880Z,101435.00
2022-08-17T22:35:14.943Z,101427.00
2022-08-17T22:37:41.371Z,101437.00
2022-08-17T22:40:12.883Z,101435.00
2022-08-17T22:42:46.112Z,101427.00
2022-08-17T22:45:12.983Z,101422.00
2022-08-17T22:47:43.041Z,101419.00
2022-08-17T22:50:14.620Z,101408.00
2022-08-17T22:53:03.257Z,101407.00
2022-08-17T22:55:50.187Z,101404.00
2022-08-17T22:58:37.254Z,101415.00
2022-08-17T23:01:26.719Z,101418.00
2022-08-17T23:03:55.171Z,101418.00
2022-08-17T23:06:21.681Z,101419.00
2022-08-17T23:08:54.821Z,101414.00
2022-08-17T23:11:36.578Z,101410.00
2022-08-17T23:14:13.742Z,101407.00
2022-08-17T23:16:43.603Z,101403.00
2022-08-17T23:19:15.317Z,101400.00
2022-08-17T23:21:42.362Z,101402.00
2022-08-17T23:24:09.089Z,101393.00
2022-08-17T23:26:40.794Z,101390.00
2022-08-17T23:29:07.553Z,101385.00
2022-08-17T23:31:34.810Z,101390.00
2022-08-17T23:34:01.577Z,101393.00
2022-08-17T23:36:28.431Z,101385.00
2022-08-17T23:38:54.999Z,101381.00
2022-08-17T23:41:23.061Z,101379.00
2022-08-17T23:43:50.898Z,101373.00
2022-08-17T23:46:17.422Z,101381.00
2022-08-17T23:48:44.437Z,101387.00
2022-08-17T23:51:13.616Z,101378.00
2022-08-17T23:53:45.165Z,101375.00
2022-08-17T23:56:12.042Z,101369.00
2022-08-17T23:58:39.825Z,101367.00
